Time;durP1;ratioP1;P1;durP2;ratioP2;P2;SDS_P1;SDS_P2;PMS_P1;PMS_P2;Temp;Humidity;BMP_temperature;BMP_pressure;BME280_temperature;BME280_humidity;BME280_pressure;Samples;Min_cycle;Max_cycle;Signal;HPM_P1;HPM_P2
2023/08/04 00:02:27;;;;;;;2.17;1.40;;;;;16.00;95815.00;;;;8384550;28;20899;-69
2023/08/04 00:06:31;;;;;;;3.65;1.40;;;;;16.00;95818.00;;;;8384294;28;20211;-69
2023/08/04 00:10:35;;;;;;;3.90;1.48;;;;;16.10;95832.00;;;;8361939;28;20231;-70
2023/08/04 00:14:42;;;;;;;8.60;1.55;;;;;16.10;95831.00;;;;8358706;28;20198;-69
2023/08/04 00:18:45;;;;;;;1.55;1.33;;;;;16.10;95841.00;;;;8382646;28;20259;-69
2023/08/04 00:22:50;;;;;;;5.38;1.60;;;;;16.20;95840.00;;;;8370426;28;20743;-69
2023/08/04 00:26:55;;;;;;;5.07;1.48;;;;;16.20;95837.00;;;;8384987;28;20824;-69
2023/08/04 00:30:58;;;;;;;4.70;1.58;;;;;16.20;95828.00;;;;8382373;28;20227;-69
2023/08/04 00:35:05;;;;;;;2.25;1.30;;;;;16.20;95818.00;;;;8375540;28;20198;-68
2023/08/04 00:39:11;;;;;;;1.33;1.20;;;;;16.20;95814.00;;;;8376996;28;20519;-69
2023/08/04 00:43:18;;;;;;;1.75;1.60;;;;;16.20;95808.00;;;;8378900;28;20236;-70
2023/08/04 00:47:21;;;;;;;1.55;1.25;;;;;16.20;95814.00;;;;8378302;28;20202;-70
2023/08/04 00:51:24;;;;;;;1.20;1.20;;;;;16.10;95813.00;;;;8381800;28;20289;-70
2023/08/04 00:55:30;;;;;;;3.13;1.30;;;;;16.10;95820.00;;;;8379395;28;20292;-69
2023/08/04 00:59:38;;;;;;;1.48;1.35;;;;;16.10;95826.00;;;;8353476;28;20283;-69
2023/08/04 01:03:43;;;;;;;2.42;1.30;;;;;16.10;95828.00;;;;8372271;28;20717;-69
2023/08/04 01:07:54;;;;;;;5.93;1.50;;;;;16.10;95820.00;;;;8365136;28;20192;-69
2023/08/04 01:12:07;;;;;;;8.55;1.48;;;;;16.10;95823.00;;;;8370939;28;20263;-70
2023/08/04 01:16:11;;;;;;;3.67;1.50;;;;;16.00;95828.00;;;;8375847;28;20196;-69
2023/08/04 01:20:14;;;;;;;1.75;1.42;;;;;16.00;95831.00;;;;8370624;28;20277;-69
2023/08/04 01:24:19;;;;;;;4.88;1.95;;;;;16.00;95838.00;;;;8381619;28;20228;-70
2023/08/04 01:28:24;;;;;;;2.13;1.67;;;;;15.90;95835.00;;;;8378131;28;20287;-70
2023/08/04 01:32:28;;;;;;;3.15;1.60;;;;;15.80;95838.00;;;;8372399;28;20219;-70
2023/08/04 01:36:32;;;;;;;3.97;1.63;;;;;15.80;95845.00;;;;8376575;28;20204;-69
2023/08/04 01:40:39;;;;;;;3.80;1.67;;;;;15.70;95838.00;;;;8377293;28;20254;-69
2023/08/04 01:44:48;;;;;;;2.67;1.65;;;;;15.70;95831.00;;;;8377682;28;20291;-69
2023/08/04 01:48:51;;;;;;;5.22;1.83;;;;;15.70;95825.00;;;;8378189;28;20204;-69
2023/08/04 01:52:55;;;;;;;2.58;2.08;;;;;15.70;95813.00;;;;8377377;28;20293;-70
2023/08/04 01:57:02;;;;;;;2.35;1.38;;;;;15.70;95812.00;;;;8374308;28;20589;-69
2023/08/04 02:01:08;;;;;;;2.10;1.50;;;;;15.60;95798.00;;;;8373388;28;20280;-70
2023/08/04 02:05:25;;;;;;;6.68;1.80;;;;;15.60;95798.00;;;;8373308;28;20642;-70
2023/08/04 02:09:30;;;;;;;4.63;1.55;;;;;15.60;95801.00;;;;8370570;28;20279;-69
2023/08/04 02:13:46;;;;;;;2.30;1.92;;;;;15.50;95798.00;;;;8378726;28;20227;-70
2023/08/04 02:17:51;;;;;;;3.22;1.48;;;;;15.50;95795.00;;;;8379661;28;20299;-68
2023/08/04 02:21:57;;;;;;;4.85;1.52;;;;;15.50;95796.00;;;;8376625;28;20224;-69
2023/08/04 02:26:00;;;;;;;3.83;1.50;;;;;15.50;95802.00;;;;8377402;28;20230;-69
2023/08/04 02:30:06;;;;;;;2.05;1.50;;;;;15.50;95803.00;;;;8371159;28;20192;-70
2023/08/04 02:34:09;;;;;;;5.22;2.28;;;;;15.50;95805.00;;;;8377194;28;20697;-68
2023/08/04 02:38:12;;;;;;;2.17;1.40;;;;;15.40;95796.00;;;;8382354;28;20203;-69
2023/08/04 02:42:24;;;;;;;2.10;1.50;;;;;15.40;95789.00;;;;8376238;28;20291;-70
2023/08/04 02:46:32;;;;;;;2.30;1.40;;;;;15.40;95790.00;;;;8377961;28;20349;-68
2023/08/04 02:50:35;;;;;;;4.35;1.80;;;;;15.40;95790.00;;;;8359836;28;20236;-70
2023/08/04 02:54:38;;;;;;;4.78;1.70;;;;;15.40;95790.00;;;;8377402;28;20257;-68
2023/08/04 02:58:42;;;;;;;4.05;1.83;;;;;15.40;95793.00;;;;8373645;28;20192;-70
2023/08/04 03:02:47;;;;;;;3.22;1.60;;;;;15.40;95805.00;;;;8400267;22;20231;-70
2023/08/04 03:06:51;;;;;;;5.13;1.58;;;;;15.40;95814.00;;;;8363027;28;20196;-68
2023/08/04 03:10:54;;;;;;;1.85;1.20;;;;;15.40;95820.00;;;;8377999;28;20233;-66
2023/08/04 03:14:57;;;;;;;3.42;1.10;;;;;15.40;95822.00;;;;8369032;28;20592;-68
2023/08/04 03:19:03;;;;;;;3.90;1.83;;;;;15.40;95824.00;;;;8374643;28;20223;-69
2023/08/04 03:23:07;;;;;;;7.63;1.65;;;;;15.50;95837.00;;;;8362822;28;20238;-69
2023/08/04 03:27:10;;;;;;;2.88;1.77;;;;;15.50;95832.00;;;;8354249;28;20203;-69
2023/08/04 03:31:15;;;;;;;3.85;1.42;;;;;15.40;95840.00;;;;8355978;28;20230;-68
2023/08/04 03:35:20;;;;;;;3.40;1.58;;;;;15.40;95848.00;;;;8362550;28;20216;-68
2023/08/04 03:39:27;;;;;;;2.10;1.52;;;;;15.40;95852.00;;;;8369882;28;20211;-69
2023/08/04 03:43:31;;;;;;;1.70;1.60;;;;;15.40;95851.00;;;;8366129;28;20287;-69
2023/08/04 03:47:37;;;;;;;2.08;1.65;;;;;15.40;95845.00;;;;8373680;28;20202;-70
2023/08/04 03:51:42;;;;;;;2.78;1.88;;;;;15.40;95843.00;;;;8378429;28;20279;-69
2023/08/04 03:55:45;;;;;;;5.85;1.60;;;;;15.30;95842.00;;;;8372812;28;20239;-69
2023/08/04 03:59:52;;;;;;;3.28;1.60;;;;;15.30;95847.00;;;;8339650;28;20870;-68
2023/08/04 04:03:55;;;;;;;4.78;1.83;;;;;15.30;95837.00;;;;8321309;28;20256;-69
2023/08/04 04:08:00;;;;;;;3.80;1.60;;;;;15.30;95831.00;;;;8377147;28;20199;-68
2023/08/04 04:12:08;;;;;;;2.15;2.05;;;;;15.30;95829.00;;;;8365504;28;20249;-68
2023/08/04 04:16:13;;;;;;;3.45;2.15;;;;;15.30;95837.00;;;;8360338;28;20218;-68
2023/08/04 04:20:16;;;;;;;5.63;1.80;;;;;15.30;95843.00;;;;8354247;28;20196;-70
2023/08/04 04:24:23;;;;;;;5.57;1.40;;;;;15.40;95854.00;;;;8376833;28;20199;-68
2023/08/04 04:28:29;;;;;;;2.78;1.52;;;;;15.50;95857.00;;;;8374500;28;20254;-68
2023/08/04 04:32:40;;;;;;;5.28;1.40;;;;;15.60;95855.00;;;;8378978;28;20224;-69
2023/08/04 04:36:46;;;;;;;8.23;2.08;;;;;15.70;95863.00;;;;8371037;28;20199;-69
2023/08/04 04:40:56;;;;;;;2.60;1.60;;;;;15.80;95873.00;;;;8385732;28;20215;-69
2023/08/04 04:45:00;;;;;;;2.70;1.63;;;;;15.80;95879.00;;;;8387395;28;20214;-70
2023/08/04 04:49:06;;;;;;;1.75;1.58;;;;;15.80;95883.00;;;;8380842;28;20200;-69
2023/08/04 04:53:09;;;;;;;4.68;1.70;;;;;15.80;95882.00;;;;8388074;28;20731;-69
2023/08/04 04:57:14;;;;;;;2.92;1.75;;;;;15.90;95885.00;;;;8386271;28;20499;-69
2023/08/04 05:01:17;;;;;;;4.43;1.98;;;;;15.90;95884.00;;;;8394403;28;20310;-69
2023/08/04 05:05:20;;;;;;;3.67;1.73;;;;;15.90;95898.00;;;;8363491;28;20200;-69
2023/08/04 05:09:25;;;;;;;3.60;1.73;;;;;15.90;95896.00;;;;8373612;28;20192;-69
2023/08/04 05:13:35;;;;;;;4.72;1.80;;;;;15.90;95896.00;;;;8365118;28;20227;-68
2023/08/04 05:17:38;;;;;;;3.03;1.80;;;;;16.00;95890.00;;;;8382303;28;20613;-69
2023/08/04 05:21:54;;;;;;;3.15;1.83;;;;;16.10;95896.00;;;;8371745;28;20724;-69
2023/08/04 05:25:59;;;;;;;1.85;1.75;;;;;16.20;95905.00;;;;8366421;28;20678;-69
2023/08/04 05:30:04;;;;;;;5.13;1.98;;;;;16.30;95905.00;;;;8369201;28;20204;-69
2023/08/04 05:34:10;;;;;;;3.60;1.60;;;;;16.40;95897.00;;;;8372409;28;20318;-69
2023/08/04 05:38:18;;;;;;;3.33;1.75;;;;;16.60;95892.00;;;;8346923;28;20204;-70
2023/08/04 05:42:24;;;;;;;1.70;1.60;;;;;16.80;95886.00;;;;8369840;28;20292;-69
2023/08/04 05:46:29;;;;;;;3.35;1.70;;;;;16.90;95891.00;;;;8373165;28;20287;-69
2023/08/04 05:50:33;;;;;;;1.88;1.77;;;;;17.10;95895.00;;;;8373704;28;20559;-69
2023/08/04 05:54:36;;;;;;;3.95;2.10;;;;;17.30;95899.00;;;;8372100;28;20260;-70
2023/08/04 05:58:39;;;;;;;4.57;1.50;;;;;17.50;95906.00;;;;8375444;28;20234;-70
2023/08/04 06:02:45;;;;;;;1.70;1.58;;;;;17.60;95902.00;;;;8371424;28;20703;-70
2023/08/04 06:06:49;;;;;;;2.75;1.55;;;;;17.80;95907.00;;;;8376193;28;20188;-71
2023/08/04 06:10:52;;;;;;;2.28;1.60;;;;;18.00;95913.00;;;;8366249;28;20202;-71
2023/08/04 06:14:57;;;;;;;2.50;1.60;;;;;18.10;95929.00;;;;8365226;28;20242;-70
2023/08/04 06:19:01;;;;;;;2.75;1.67;;;;;18.40;95931.00;;;;8359676;28;20313;-68
2023/08/04 06:23:07;;;;;;;1.50;1.40;;;;;18.60;95926.00;;;;8369536;28;22083;-70
2023/08/04 06:27:10;;;;;;;2.00;1.45;;;;;18.80;95931.00;;;;8369780;28;20200;-71
2023/08/04 06:31:14;;;;;;;1.30;1.17;;;;;18.90;95923.00;;;;8356338;28;20202;-69
2023/08/04 06:35:21;;;;;;;2.78;1.38;;;;;18.90;95930.00;;;;8370744;28;20231;-70
2023/08/04 06:39:24;;;;;;;3.55;1.30;;;;;19.00;95927.00;;;;8368402;28;20192;-68
2023/08/04 06:43:27;;;;;;;4.47;1.27;;;;;19.10;95917.00;;;;8373511;28;20661;-70
2023/08/04 06:47:30;;;;;;;3.75;1.40;;;;;19.20;95927.00;;;;8375422;28;20200;-71
2023/08/04 06:51:35;;;;;;;1.92;1.48;;;;;19.40;95929.00;;;;8370921;28;20200;-71
2023/08/04 06:55:38;;;;;;;2.85;1.20;;;;;19.80;95935.00;;;;8365478;28;20709;-71
2023/08/04 06:59:49;;;;;;;2.45;1.48;;;;;20.20;95940.00;;;;8369109;28;20254;-71
2023/08/04 07:03:53;;;;;;;5.57;1.45;;;;;20.70;95941.00;;;;8364955;28;20273;-71
2023/08/04 07:08:00;;;;;;;1.40;1.25;;;;;21.50;95947.00;;;;8358894;28;20266;-70
2023/08/04 07:12:03;;;;;;;2.17;1.45;;;;;22.90;95941.00;;;;8362789;28;20230;-70
2023/08/04 07:16:07;;;;;;;2.63;1.60;;;;;23.50;95957.00;;;;8362254;28;20616;-70
2023/08/04 07:20:11;;;;;;;2.90;1.30;;;;;23.40;95962.00;;;;8361384;28;20767;-69
2023/08/04 07:24:18;;;;;;;3.53;1.17;;;;;23.40;95964.00;;;;8361311;28;20780;-71
2023/08/04 07:28:22;;;;;;;6.82;1.52;;;;;23.30;95966.00;;;;8366708;28;20203;-70
2023/08/04 07:32:27;;;;;;;3.60;1.80;;;;;23.00;95965.00;;;;8365364;28;20323;-71
2023/08/04 07:36:32;;;;;;;3.67;1.50;;;;;22.70;95970.00;;;;8369778;28;20256;-71
2023/08/04 07:40:40;;;;;;;5.63;1.30;;;;;22.50;95972.00;;;;8376372;28;20196;-71
2023/08/04 07:44:47;;;;;;;2.30;1.30;;;;;22.30;95966.00;;;;8366945;28;20280;-70
2023/08/04 07:49:05;;;;;;;1.92;1.17;;;;;22.20;95961.00;;;;8374696;28;20708;-68
2023/08/04 07:53:08;;;;;;;3.30;1.58;;;;;22.00;95963.00;;;;8370868;28;20775;-71
2023/08/04 07:57:14;;;;;;;2.25;1.30;;;;;21.80;95959.00;;;;8370047;28;20227;-72
2023/08/04 08:01:17;;;;;;;1.63;1.45;;;;;21.70;95957.00;;;;8363667;28;20236;-71
2023/08/04 08:05:20;;;;;;;1.73;1.30;;;;;21.60;95951.00;;;;8373492;28;20699;-69
2023/08/04 08:09:23;;;;;;;3.35;1.30;;;;;21.50;95960.00;;;;8371502;28;20204;-68
2023/08/04 08:13:31;;;;;;;2.40;1.25;;;;;21.60;95967.00;;;;8376718;28;20231;-68
2023/08/04 08:17:38;;;;;;;3.78;1.35;;;;;21.80;95979.00;;;;8377792;28;20589;-70
2023/08/04 08:21:44;;;;;;;2.50;1.15;;;;;21.90;95991.00;;;;8384448;28;20820;-68
2023/08/04 08:25:49;;;;;;;1.42;1.10;;;;;21.80;95987.00;;;;8387898;28;20286;-70
2023/08/04 08:29:56;;;;;;;2.40;1.20;;;;;22.00;95992.00;;;;8379665;28;20667;-69
2023/08/04 08:34:02;;;;;;;4.43;1.40;;;;;21.90;95974.00;;;;8381228;28;20256;-70
2023/08/04 08:38:05;;;;;;;1.20;1.15;;;;;21.80;95972.00;;;;8379731;28;20207;-70
2023/08/04 08:42:08;;;;;;;1.63;1.52;;;;;21.90;95962.00;;;;8381155;28;20227;-69
2023/08/04 08:46:14;;;;;;;3.78;1.63;;;;;22.20;95964.00;;;;8384465;28;20534;-69
2023/08/04 08:50:23;;;;;;;4.25;1.48;;;;;22.60;95962.00;;;;8384476;28;20641;-70
2023/08/04 08:54:30;;;;;;;3.20;1.63;;;;;22.90;95970.00;;;;8376540;28;20706;-72
2023/08/04 08:58:35;;;;;;;3.67;1.20;;;;;23.20;95970.00;;;;8369237;28;20193;-68
2023/08/04 09:02:45;;;;;;;2.20;1.27;;;;;23.40;95976.00;;;;8368673;28;20232;-70
2023/08/04 09:06:52;;;;;;;3.10;1.30;;;;;23.50;95977.00;;;;8374866;28;20208;-71
2023/08/04 09:10:57;;;;;;;1.40;1.30;;;;;23.30;95978.00;;;;8376435;28;20881;-69
2023/08/04 09:15:04;;;;;;;3.63;1.38;;;;;23.30;95981.00;;;;8358518;28;20394;-68
2023/08/04 09:19:08;;;;;;;3.80;1.48;;;;;23.40;95974.00;;;;8373891;28;20203;-68
2023/08/04 09:23:12;;;;;;;2.30;1.30;;;;;23.40;95962.00;;;;8378077;28;20200;-70
2023/08/04 09:27:31;;;;;;;3.08;1.05;;;;;23.80;95970.00;;;;8374469;28;20262;-68
2023/08/04 09:31:36;;;;;;;1.40;1.30;;;;;24.10;95972.00;;;;8370043;28;20203;-69
2023/08/04 09:35:40;;;;;;;7.00;1.40;;;;;24.40;95981.00;;;;8368311;28;20228;-70
2023/08/04 09:39:47;;;;;;;3.97;1.30;;;;;24.40;95964.00;;;;8385062;28;20791;-68
2023/08/04 09:43:55;;;;;;;2.20;1.42;;;;;24.50;95973.00;;;;8377421;28;20212;-70
2023/08/04 09:47:58;;;;;;;3.15;1.30;;;;;24.70;95979.00;;;;8379268;28;20287;-71
2023/08/04 09:52:03;;;;;;;3.05;1.40;;;;;24.70;95974.00;;;;8375390;28;20584;-68
2023/08/04 09:56:08;;;;;;;2.70;1.20;;;;;24.60;95974.00;;;;8359525;28;20228;-69
2023/08/04 10:00:18;;;;;;;3.40;1.20;;;;;24.60;95973.00;;;;8376909;28;20265;-68
2023/08/04 10:04:23;;;;;;;3.67;1.60;;;;;24.60;95967.00;;;;8372309;28;20745;-69
2023/08/04 10:08:36;;;;;;;1.10;1.00;;;;;24.60;95952.00;;;;8368136;28;20699;-68
2023/08/04 10:12:39;;;;;;;1.75;1.20;;;;;24.60;95943.00;;;;8367633;28;20193;-71
2023/08/04 10:16:44;;;;;;;1.77;1.10;;;;;24.70;95945.00;;;;8365928;28;20300;-72
2023/08/04 10:20:50;;;;;;;1.77;1.15;;;;;24.60;95948.00;;;;8366686;28;20197;-69
2023/08/04 10:24:55;;;;;;;2.47;1.25;;;;;24.80;95943.00;;;;8368315;28;20627;-68
2023/08/04 10:29:10;;;;;;;2.60;1.20;;;;;25.10;95951.00;;;;8293406;28;20315;-67
2023/08/04 10:33:14;;;;;;;1.60;1.05;;;;;25.60;95949.00;;;;8267302;28;20234;-68
2023/08/04 10:37:19;;;;;;;2.15;1.00;;;;;26.10;95943.00;;;;8264022;28;20205;-67
2023/08/04 10:41:23;;;;;;;1.77;1.20;;;;;26.30;95929.00;;;;8269507;28;20533;-67
2023/08/04 10:45:55;;;;;;;1.85;1.35;;;;;26.50;95938.00;;;;8267598;28;20208;-69
2023/08/04 10:50:00;;;;;;;1.95;1.27;;;;;26.60;95938.00;;;;8273127;28;20730;-68
2023/08/04 10:54:03;;;;;;;3.58;1.20;;;;;26.60;95959.00;;;;8269626;28;20222;-68
2023/08/04 10:58:18;;;;;;;5.40;1.20;;;;;26.50;95961.00;;;;8270843;28;20206;-69
2023/08/04 11:02:26;;;;;;;1.58;1.17;;;;;27.40;95958.00;;;;8268682;28;20224;-69
2023/08/04 11:06:29;;;;;;;1.75;1.17;;;;;28.30;95973.00;;;;8267490;28;20204;-70
2023/08/04 11:10:35;;;;;;;1.65;1.10;;;;;28.30;95986.00;;;;8254048;28;20991;-70
2023/08/04 11:14:40;;;;;;;2.15;1.70;;;;;28.20;96000.00;;;;8270905;28;20258;-68
2023/08/04 11:18:45;;;;;;;2.15;1.33;;;;;28.10;95987.00;;;;8268052;28;20278;-70
2023/08/04 11:22:48;;;;;;;7.63;1.45;;;;;28.30;95988.00;;;;8272323;28;20212;-70
2023/08/04 11:26:52;;;;;;;2.47;1.38;;;;;29.10;95981.00;;;;8276352;28;20313;-69
2023/08/04 11:31:04;;;;;;;1.45;1.27;;;;;29.20;95976.00;;;;8265120;28;20260;-69
2023/08/04 11:35:14;;;;;;;1.25;1.15;;;;;29.10;95996.00;;;;8272780;28;20245;-70
2023/08/04 11:39:19;;;;;;;2.75;0.98;;;;;29.10;96009.00;;;;8280020;28;20199;-69
2023/08/04 11:43:22;;;;;;;1.67;1.02;;;;;29.10;96026.00;;;;8278382;28;20246;-69
2023/08/04 11:47:27;;;;;;;1.15;1.10;;;;;28.90;96024.00;;;;8279073;28;20206;-68
2023/08/04 11:51:31;;;;;;;1.35;1.10;;;;;28.80;96020.00;;;;8278898;28;20202;-68
2023/08/04 11:55:34;;;;;;;1.20;1.10;;;;;29.10;96003.00;;;;8275981;28;21440;-66
2023/08/04 11:59:47;;;;;;;1.20;1.10;;;;;29.20;95995.00;;;;8266827;28;20444;-67
2023/08/04 12:03:52;;;;;;;1.33;1.23;;;;;29.50;95998.00;;;;8267243;28;20360;-68
2023/08/04 12:07:56;;;;;;;1.55;1.17;;;;;30.20;95997.00;;;;8275530;28;20195;-69
2023/08/04 12:12:03;;;;;;;1.67;1.10;;;;;30.60;95987.00;;;;8263835;28;20264;-67
2023/08/04 12:16:12;;;;;;;2.05;1.10;;;;;31.40;95971.00;;;;8280321;28;20230;-68
2023/08/04 12:20:20;;;;;;;1.00;1.00;;;;;32.10;95960.00;;;;8284753;28;20203;-67
2023/08/04 12:24:23;;;;;;;1.58;1.13;;;;;32.20;95950.00;;;;8283902;28;20578;-68
2023/08/04 12:28:30;;;;;;;3.05;1.25;;;;;31.80;95953.00;;;;8284536;28;21247;-68
2023/08/04 12:32:36;;;;;;;1.13;1.05;;;;;31.20;95956.00;;;;8282946;28;20209;-68
2023/08/04 12:36:41;;;;;;;1.17;1.05;;;;;30.70;95975.00;;;;8283059;28;20292;-69
2023/08/04 12:40:45;;;;;;;1.88;1.08;;;;;30.40;95976.00;;;;8281807;28;20268;-67
2023/08/04 12:44:48;;;;;;;2.15;1.20;;;;;30.40;95981.00;;;;8282977;28;21359;-68
2023/08/04 12:48:54;;;;;;;1.00;0.90;;;;;30.60;95971.00;;;;8277510;28;20233;-69
2023/08/04 12:53:00;;;;;;;0.88;0.82;;;;;30.40;95958.00;;;;8284370;28;20426;-69
2023/08/04 12:57:10;;;;;;;1.67;1.10;;;;;30.40;95949.00;;;;8284483;28;20230;-69
2023/08/04 13:01:14;;;;;;;1.02;1.00;;;;;30.20;95948.00;;;;8283755;28;20210;-70
2023/08/04 13:05:17;;;;;;;2.92;1.27;;;;;30.40;95951.00;;;;8281821;28;20373;-69
2023/08/04 13:09:21;;;;;;;1.10;1.00;;;;;30.70;95959.00;;;;8282916;28;20202;-69
2023/08/04 13:13:25;;;;;;;1.08;1.08;;;;;31.00;95959.00;;;;8282453;28;20309;-69
2023/08/04 13:17:31;;;;;;;1.48;1.15;;;;;31.20;95966.00;;;;8280745;28;20624;-70
2023/08/04 13:21:35;;;;;;;1.42;1.10;;;;;31.40;95983.00;;;;8278078;28;20229;-69
2023/08/04 13:25:41;;;;;;;0.93;0.93;;;;;31.40;95975.00;;;;8283220;28;20198;-69
2023/08/04 13:29:47;;;;;;;1.45;1.20;;;;;31.50;95967.00;;;;8283301;28;20191;-69
2023/08/04 13:33:50;;;;;;;1.25;0.90;;;;;31.70;95976.00;;;;8282828;28;20210;-69
2023/08/04 13:37:53;;;;;;;1.15;1.02;;;;;31.50;95971.00;;;;8268163;28;20827;-69
2023/08/04 13:41:58;;;;;;;0.70;0.70;;;;;31.30;95965.00;;;;8280778;28;20616;-70
2023/08/04 13:46:03;;;;;;;3.45;1.10;;;;;31.10;95974.00;;;;8281965;28;20296;-70
2023/08/04 13:50:07;;;;;;;4.45;1.10;;;;;30.90;95970.00;;;;8281472;28;20210;-70
2023/08/04 13:54:11;;;;;;;1.33;0.93;;;;;30.70;95964.00;;;;8281182;28;20786;-69
2023/08/04 13:58:16;;;;;;;0.82;0.82;;;;;30.70;95971.00;;;;8282012;28;20313;-69
2023/08/04 14:02:19;;;;;;;1.08;0.98;;;;;30.80;95970.00;;;;8274627;28;20807;-69
2023/08/04 14:06:29;;;;;;;1.85;1.08;;;;;30.50;95966.00;;;;8279734;28;20198;-70
2023/08/04 14:10:33;;;;;;;3.22;1.10;;;;;30.10;95983.00;;;;8278809;28;20656;-70
2023/08/04 14:14:42;;;;;;;2.60;1.20;;;;;29.80;95978.00;;;;8282064;28;20237;-69
2023/08/04 14:18:45;;;;;;;1.10;1.10;;;;;29.40;95975.00;;;;8274402;28;20208;-68
2023/08/04 14:22:48;;;;;;;20.67;1.48;;;;;29.10;95987.00;;;;8274746;28;20233;-68
2023/08/04 14:26:54;;;;;;;0.95;0.88;;;;;28.90;95983.00;;;;8279901;28;20210;-69
2023/08/04 14:30:59;;;;;;;3.20;1.33;;;;;28.70;95982.00;;;;8278970;28;20201;-70
2023/08/04 14:35:02;;;;;;;0.98;0.93;;;;;28.60;95977.00;;;;8276575;28;20217;-68
2023/08/04 14:39:10;;;;;;;2.40;1.05;;;;;28.20;95991.00;;;;8277843;28;20694;-70
2023/08/04 14:43:15;;;;;;;3.97;1.20;;;;;27.60;96000.00;;;;8279567;28;20205;-69
2023/08/04 14:47:21;;;;;;;1.15;1.05;;;;;27.10;96015.00;;;;8260686;28;20198;-69
2023/08/04 14:51:30;;;;;;;1.38;1.27;;;;;26.10;96024.00;;;;8281076;28;20252;-69
2023/08/04 14:55:36;;;;;;;3.22;1.40;;;;;25.10;96009.00;;;;8279434;28;20309;-70
2023/08/04 14:59:41;;;;;;;2.05;1.35;;;;;24.10;95995.00;;;;8282350;28;20237;-69
2023/08/04 15:03:52;;;;;;;2.78;1.27;;;;;23.20;95996.00;;;;8279195;28;20261;-70
2023/08/04 15:07:56;;;;;;;4.65;1.30;;;;;22.80;95989.00;;;;8280020;28;20198;-70
2023/08/04 15:12:05;;;;;;;2.75;1.35;;;;;22.50;95992.00;;;;8277750;28;20206;-69
2023/08/04 15:16:09;;;;;;;1.58;1.13;;;;;22.10;95981.00;;;;8275075;28;20834;-69
2023/08/04 15:20:13;;;;;;;1.67;1.23;;;;;21.80;95993.00;;;;8280157;28;20202;-68
2023/08/04 15:24:21;;;;;;;1.70;1.60;;;;;21.60;95978.00;;;;8277762;28;20194;-68
2023/08/04 15:28:26;;;;;;;2.70;1.67;;;;;21.50;95970.00;;;;8278677;28;20532;-69
2023/08/04 15:32:29;;;;;;;1.38;1.27;;;;;21.50;95963.00;;;;8272040;28;20206;-68
2023/08/04 15:36:35;;;;;;;2.00;1.30;;;;;21.40;95963.00;;;;8269702;28;20552;-68
2023/08/04 15:40:40;;;;;;;1.02;1.02;;;;;21.30;95960.00;;;;8267157;28;20213;-69
2023/08/04 15:44:47;;;;;;;2.00;1.33;;;;;21.30;95960.00;;;;8254512;28;20632;-68
2023/08/04 15:48:52;;;;;;;8.48;1.50;;;;;21.40;95959.00;;;;8274438;28;20206;-68
2023/08/04 15:53:03;;;;;;;2.30;1.42;;;;;21.40;95964.00;;;;8281437;28;20212;-68
2023/08/04 15:57:06;;;;;;;2.67;1.80;;;;;21.30;95963.00;;;;8281679;28;20241;-68
2023/08/04 16:01:09;;;;;;;3.05;1.20;;;;;21.10;95951.00;;;;8279237;28;20308;-69
2023/08/04 16:05:15;;;;;;;2.20;1.40;;;;;21.00;95953.00;;;;8279204;28;20208;-72
2023/08/04 16:09:21;;;;;;;1.50;1.38;;;;;21.10;95949.00;;;;8261873;28;20224;-68
2023/08/04 16:13:26;;;;;;;5.53;1.45;;;;;21.20;95963.00;;;;8263395;28;20724;-68
2023/08/04 16:17:35;;;;;;;1.40;1.20;;;;;21.20;95981.00;;;;8278064;28;20233;-69
2023/08/04 16:21:38;;;;;;;1.38;1.10;;;;;21.20;95975.00;;;;8273935;28;20194;-68
2023/08/04 16:25:42;;;;;;;0.90;0.90;;;;;21.20;95988.00;;;;8271432;28;20207;-69
2023/08/04 16:29:50;;;;;;;1.40;1.30;;;;;21.00;95996.00;;;;8283542;28;20289;-70
2023/08/04 16:33:54;;;;;;;2.38;1.40;;;;;20.90;95980.00;;;;8269783;28;20213;-71
2023/08/04 16:37:57;;;;;;;4.68;1.83;;;;;20.70;95960.00;;;;8279828;28;20234;-70
2023/08/04 16:42:02;;;;;;;3.25;1.50;;;;;20.60;95977.00;;;;8277881;28;20300;-70
2023/08/04 16:46:07;;;;;;;4.15;1.70;;;;;20.60;95983.00;;;;8282478;28;20202;-69
2023/08/04 16:50:10;;;;;;;4.82;1.90;;;;;20.50;95985.00;;;;8276775;28;20205;-69
2023/08/04 16:54:15;;;;;;;2.92;1.50;;;;;20.50;95984.00;;;;8276458;28;20639;-69
2023/08/04 16:58:20;;;;;;;2.35;1.35;;;;;20.50;95995.00;;;;8277903;28;20336;-69
2023/08/04 17:02:24;;;;;;;6.00;1.63;;;;;20.50;96002.00;;;;8272653;28;20282;-71
2023/08/04 17:06:28;;;;;;;1.50;1.40;;;;;20.40;96006.00;;;;8274822;28;20233;-72
2023/08/04 17:10:38;;;;;;;3.50;1.50;;;;;20.30;96018.00;;;;8282155;28;20278;-69
2023/08/04 17:14:42;;;;;;;1.85;1.45;;;;;20.20;96027.00;;;;8275804;28;20230;-70
2023/08/04 17:18:47;;;;;;;2.30;1.30;;;;;20.20;96040.00;;;;8280374;28;20273;-68
2023/08/04 17:22:50;;;;;;;2.05;1.13;;;;;20.20;96041.00;;;;8278546;28;20312;-69
2023/08/04 17:26:53;;;;;;;2.03;1.40;;;;;20.20;96042.00;;;;8280648;28;20222;-67
2023/08/04 17:31:04;;;;;;;3.10;1.27;;;;;20.20;96028.00;;;;8279938;28;20307;-66
2023/08/04 17:35:08;;;;;;;2.10;1.52;;;;;20.20;96030.00;;;;8279365;28;20813;-68
2023/08/04 17:39:11;;;;;;;2.08;1.55;;;;;20.20;96015.00;;;;8277089;28;20225;-67
2023/08/04 17:43:14;;;;;;;1.45;1.35;;;;;20.20;96013.00;;;;8266679;28;20201;-66
2023/08/04 17:47:20;;;;;;;1.40;1.30;;;;;20.00;96015.00;;;;8271262;28;20801;-67
2023/08/04 17:51:27;;;;;;;1.33;1.30;;;;;19.90;96001.00;;;;8281166;28;20242;-67
2023/08/04 17:55:33;;;;;;;2.80;1.40;;;;;19.80;95996.00;;;;8275388;28;20198;-67
2023/08/04 17:59:37;;;;;;;4.30;1.50;;;;;19.70;96003.00;;;;8281903;28;20233;-67
2023/08/04 18:03:44;;;;;;;1.85;1.33;;;;;19.80;96014.00;;;;8271043;28;20236;-66
2023/08/04 18:07:49;;;;;;;1.52;1.42;;;;;19.80;96018.00;;;;8278687;28;20281;-65
2023/08/04 18:11:55;;;;;;;2.15;1.50;;;;;19.80;96029.00;;;;8297167;28;20202;-64
2023/08/04 18:16:01;;;;;;;2.03;1.17;;;;;19.70;96030.00;;;;8296741;28;20305;-65
2023/08/04 18:20:09;;;;;;;2.05;1.30;;;;;19.70;96038.00;;;;8299987;28;20284;-65
2023/08/04 18:24:13;;;;;;;1.10;1.10;;;;;19.50;96037.00;;;;8298952;28;20198;-65
2023/08/04 18:28:17;;;;;;;1.13;1.13;;;;;19.40;96033.00;;;;8299423;28;20313;-65
2023/08/04 18:32:21;;;;;;;1.42;1.20;;;;;19.30;96026.00;;;;8299913;28;20635;-65
2023/08/04 18:36:26;;;;;;;1.65;1.20;;;;;19.40;96027.00;;;;8299521;28;20317;-65
2023/08/04 18:40:32;;;;;;;3.85;1.20;;;;;19.30;96041.00;;;;8299010;28;20194;-65
2023/08/04 18:44:35;;;;;;;1.50;1.40;;;;;19.30;96047.00;;;;8299240;28;20199;-65
2023/08/04 18:48:41;;;;;;;3.40;1.38;;;;;19.20;96059.00;;;;8298657;28;20287;-65
2023/08/04 18:52:47;;;;;;;1.25;1.20;;;;;19.10;96069.00;;;;8299167;28;20281;-65
2023/08/04 18:56:53;;;;;;;1.98;1.50;;;;;19.10;96071.00;;;;8299110;28;20218;-65
2023/08/04 19:01:03;;;;;;;3.03;1.55;;;;;19.10;96065.00;;;;8298841;28;20198;-66
2023/08/04 19:05:07;;;;;;;2.10;1.30;;;;;19.10;96065.00;;;;8300045;28;20209;-65
2023/08/04 19:09:12;;;;;;;4.72;1.50;;;;;19.10;96070.00;;;;8299173;28;20198;-65
2023/08/04 19:13:18;;;;;;;1.45;1.35;;;;;19.00;96075.00;;;;8281605;28;20194;-65
2023/08/04 19:17:24;;;;;;;1.40;1.30;;;;;18.90;96083.00;;;;8298393;28;20264;-65
2023/08/04 19:21:28;;;;;;;1.55;1.45;;;;;18.90;96090.00;;;;8300053;28;20639;-65
2023/08/04 19:25:34;;;;;;;2.90;1.30;;;;;18.80;96088.00;;;;8304751;28;20229;-65
2023/08/04 19:29:38;;;;;;;5.22;1.85;;;;;18.80;96095.00;;;;8302517;28;20285;-65
2023/08/04 19:33:50;;;;;;;4.20;1.50;;;;;18.70;96084.00;;;;8304639;28;20269;-65
2023/08/04 19:37:55;;;;;;;3.40;1.63;;;;;18.70;96086.00;;;;8304119;28;20221;-66
2023/08/04 19:42:00;;;;;;;5.53;1.85;;;;;18.70;96087.00;;;;8304513;28;20194;-66
2023/08/04 19:46:05;;;;;;;5.22;2.00;;;;;18.60;96085.00;;;;8304183;28;20321;-66
2023/08/04 19:50:10;;;;;;;1.88;1.77;;;;;18.60;96093.00;;;;8305370;28;20193;-66
2023/08/04 19:54:13;;;;;;;2.80;1.60;;;;;18.60;96100.00;;;;8304719;28;20237;-66
2023/08/04 19:58:19;;;;;;;4.00;1.80;;;;;18.50;96099.00;;;;8304838;28;20312;-66
2023/08/04 20:02:22;;;;;;;1.98;1.63;;;;;18.30;96095.00;;;;8300689;28;20300;-64
2023/08/04 20:06:25;;;;;;;3.13;1.55;;;;;18.20;96092.00;;;;8285757;28;20198;-66
2023/08/04 20:10:29;;;;;;;5.10;2.00;;;;;18.20;96083.00;;;;8302841;28;20225;-66
2023/08/04 20:14:34;;;;;;;2.47;1.60;;;;;18.10;96090.00;;;;8297725;28;20263;-66
2023/08/04 20:18:39;;;;;;;2.30;1.65;;;;;18.00;96087.00;;;;8303833;28;20244;-66
2023/08/04 20:22:42;;;;;;;2.42;1.80;;;;;17.90;96100.00;;;;8302409;28;20581;-66
2023/08/04 20:26:48;;;;;;;3.95;1.65;;;;;17.80;96105.00;;;;8303531;28;20204;-65
2023/08/04 20:31:06;;;;;;;3.03;2.00;;;;;17.70;96093.00;;;;8301024;28;20234;-66